sensor_id;sensor_type;location;lat;lon;timestamp;P1;durP1;ratioP1;P2;durP2;ratioP2
33184;SDS011;19550;42.872;25.494;2023-05-27T00:00:43;9.73;;;6.65;;
33184;SDS011;19550;42.872;25.494;2023-05-27T00:03:10;8.20;;;6.72;;
33184;SDS011;19550;42.872;25.494;2023-05-27T00:05:38;15.57;;;6.55;;
33184;SDS011;19550;42.872;25.494;2023-05-27T00:08:05;11.10;;;5.80;;
33184;SDS011;19550;42.872;25.494;2023-05-27T00:10:32;9.95;;;6.38;;
33184;SDS011;19550;42.872;25.494;2023-05-27T00:12:59;6.82;;;5.63;;
33184;SDS011;19550;42.872;25.494;2023-05-27T00:15:25;8.63;;;5.40;;
33184;SDS011;19550;42.872;25.494;2023-05-27T00:17:52;5.85;;;5.25;;
33184;SDS011;19550;42.872;25.494;2023-05-27T00:20:19;8.18;;;5.47;;
33184;SDS011;19550;42.872;25.494;2023-05-27T00:22:47;7.07;;;5.05;;
33184;SDS011;19550;42.872;25.494;2023-05-27T00:25:14;6.38;;;5.75;;
33184;SDS011;19550;42.872;25.494;2023-05-27T00:27:42;9.02;;;5.75;;
33184;SDS011;19550;42.872;25.494;2023-05-27T00:30:09;9.25;;;5.72;;
33184;SDS011;19550;42.872;25.494;2023-05-27T00:32:36;9.52;;;5.72;;
33184;SDS011;19550;42.872;25.494;2023-05-27T00:35:03;11.07;;;5.75;;
33184;SDS011;19550;42.872;25.494;2023-05-27T00:37:30;7.22;;;5.88;;
33184;SDS011;19550;42.872;25.494;2023-05-27T00:39:59;13.18;;;5.90;;
33184;SDS011;19550;42.872;25.494;2023-05-27T00:42:25;9.32;;;5.75;;
33184;SDS011;19550;42.872;25.494;2023-05-27T00:44:52;13.20;;;6.30;;
33184;SDS011;19550;42.872;25.494;2023-05-27T00:47:19;14.65;;;6.05;;
33184;SDS011;19550;42.872;25.494;2023-05-27T00:49:46;15.20;;;5.65;;
33184;SDS011;19550;42.872;25.494;2023-05-27T00:52:13;9.43;;;5.60;;
33184;SDS011;19550;42.872;25.494;2023-05-27T00:54:40;8.68;;;5.35;;
33184;SDS011;19550;42.872;25.494;2023-05-27T00:57:09;12.93;;;6.50;;
33184;SDS011;19550;42.872;25.494;2023-05-27T00:59:36;9.10;;;5.43;;
33184;SDS011;19550;42.872;25.494;2023-05-27T01:02:02;12.90;;;6.30;;
33184;SDS011;19550;42.872;25.494;2023-05-27T01:04:30;6.45;;;4.80;;
33184;SDS011;19550;42.872;25.494;2023-05-27T01:06:59;12.48;;;6.03;;
33184;SDS011;19550;42.872;25.494;2023-05-27T01:09:31;10.20;;;5.78;;
33184;SDS011;19550;42.872;25.494;2023-05-27T01:12:08;11.68;;;6.00;;
33184;SDS011;19550;42.872;25.494;2023-05-27T01:14:41;11.02;;;5.60;;
33184;SDS011;19550;42.872;25.494;2023-05-27T01:17:10;13.90;;;6.97;;
33184;SDS011;19550;42.872;25.494;2023-05-27T01:19:41;12.50;;;6.05;;
33184;SDS011;19550;42.872;25.494;2023-05-27T01:22:11;8.18;;;6.15;;
33184;SDS011;19550;42.872;25.494;2023-05-27T01:24:40;7.38;;;5.68;;
33184;SDS011;19550;42.872;25.494;2023-05-27T01:27:07;9.07;;;6.30;;
33184;SDS011;19550;42.872;25.494;2023-05-27T01:29:37;14.13;;;5.68;;
33184;SDS011;19550;42.872;25.494;2023-05-27T01:32:06;13.77;;;5.90;;
33184;SDS011;19550;42.872;25.494;2023-05-27T01:34:40;9.65;;;6.45;;
33184;SDS011;19550;42.872;25.494;2023-05-27T01:37:11;8.15;;;5.82;;
33184;SDS011;19550;42.872;25.494;2023-05-27T01:39:44;18.08;;;6.68;;
33184;SDS011;19550;42.872;25.494;2023-05-27T01:42:12;10.82;;;6.18;;
33184;SDS011;19550;42.872;25.494;2023-05-27T01:44:41;11.45;;;6.53;;
33184;SDS011;19550;42.872;25.494;2023-05-27T01:47:08;9.15;;;6.80;;
33184;SDS011;19550;42.872;25.494;2023-05-27T01:49:35;7.95;;;5.90;;
33184;SDS011;19550;42.872;25.494;2023-05-27T01:52:02;7.88;;;6.40;;
33184;SDS011;19550;42.872;25.494;2023-05-27T01:54:29;8.13;;;6.22;;
33184;SDS011;19550;42.872;25.494;2023-05-27T01:56:57;9.73;;;6.90;;
33184;SDS011;19550;42.872;25.494;2023-05-27T01:59:24;11.27;;;6.38;;
33184;SDS011;19550;42.872;25.494;2023-05-27T02:01:51;12.73;;;6.97;;
33184;SDS011;19550;42.872;25.494;2023-05-27T02:04:18;8.35;;;6.05;;
33184;SDS011;19550;42.872;25.494;2023-05-27T02:06:45;8.80;;;5.80;;
33184;SDS011;19550;42.872;25.494;2023-05-27T02:09:11;10.55;;;6.10;;
33184;SDS011;19550;42.872;25.494;2023-05-27T02:11:39;14.50;;;6.05;;
33184;SDS011;19550;42.872;25.494;2023-05-27T02:14:07;14.45;;;5.93;;
33184;SDS011;19550;42.872;25.494;2023-05-27T02:16:34;9.93;;;6.25;;
33184;SDS011;19550;42.872;25.494;2023-05-27T02:19:01;9.52;;;6.07;;
33184;SDS011;19550;42.872;25.494;2023-05-27T02:21:29;10.20;;;6.68;;
33184;SDS011;19550;42.872;25.494;2023-05-27T02:23:56;11.45;;;6.88;;
33184;SDS011;19550;42.872;25.494;2023-05-27T02:26:23;12.57;;;6.60;;
33184;SDS011;19550;42.872;25.494;2023-05-27T02:28:50;10.63;;;7.00;;
33184;SDS011;19550;42.872;25.494;2023-05-27T02:31:18;10.65;;;6.70;;
33184;SDS011;19550;42.872;25.494;2023-05-27T02:33:45;11.35;;;6.13;;
33184;SDS011;19550;42.872;25.494;2023-05-27T02:36:12;12.80;;;6.38;;
33184;SDS011;19550;42.872;25.494;2023-05-27T02:38:39;10.52;;;6.50;;
33184;SDS011;19550;42.872;25.494;2023-05-27T02:41:06;8.77;;;6.63;;
33184;SDS011;19550;42.872;25.494;2023-05-27T02:43:32;12.38;;;7.05;;
33184;SDS011;19550;42.872;25.494;2023-05-27T02:45:59;10.80;;;6.75;;
33184;SDS011;19550;42.872;25.494;2023-05-27T02:48:27;10.25;;;6.95;;
33184;SDS011;19550;42.872;25.494;2023-05-27T02:50:54;18.30;;;6.78;;
33184;SDS011;19550;42.872;25.494;2023-05-27T02:53:21;13.70;;;7.07;;
33184;SDS011;19550;42.872;25.494;2023-05-27T02:55:49;14.23;;;7.35;;
33184;SDS011;19550;42.872;25.494;2023-05-27T02:58:16;12.98;;;7.78;;
33184;SDS011;19550;42.872;25.494;2023-05-27T03:00:43;11.93;;;7.65;;
33184;SDS011;19550;42.872;25.494;2023-05-27T03:03:09;10.50;;;7.30;;
33184;SDS011;19550;42.872;25.494;2023-05-27T03:05:38;10.23;;;6.95;;
33184;SDS011;19550;42.872;25.494;2023-05-27T03:08:04;9.13;;;7.28;;
33184;SDS011;19550;42.872;25.494;2023-05-27T03:10:31;14.50;;;7.45;;
33184;SDS011;19550;42.872;25.494;2023-05-27T03:12:58;15.63;;;7.32;;
33184;SDS011;19550;42.872;25.494;2023-05-27T03:15:25;19.70;;;7.55;;
33184;SDS011;19550;42.872;25.494;2023-05-27T03:17:53;11.63;;;7.63;;
33184;SDS011;19550;42.872;25.494;2023-05-27T03:20:20;12.40;;;7.25;;
33184;SDS011;19550;42.872;25.494;2023-05-27T03:22:49;7.90;;;6.55;;
33184;SDS011;19550;42.872;25.494;2023-05-27T03:25:15;11.77;;;8.00;;
33184;SDS011;19550;42.872;25.494;2023-05-27T03:27:42;9.70;;;6.70;;
33184;SDS011;19550;42.872;25.494;2023-05-27T03:30:09;11.15;;;7.93;;
33184;SDS011;19550;42.872;25.494;2023-05-27T03:32:36;24.42;;;9.38;;
33184;SDS011;19550;42.872;25.494;2023-05-27T03:35:03;10.55;;;7.85;;
33184;SDS011;19550;42.872;25.494;2023-05-27T03:37:31;8.90;;;8.00;;
33184;SDS011;19550;42.872;25.494;2023-05-27T03:39:59;10.82;;;8.60;;
33184;SDS011;19550;42.872;25.494;2023-05-27T03:42:26;21.27;;;9.18;;
33184;SDS011;19550;42.872;25.494;2023-05-27T03:44:53;10.57;;;8.70;;
33184;SDS011;19550;42.872;25.494;2023-05-27T03:47:19;17.35;;;14.10;;
33184;SDS011;19550;42.872;25.494;2023-05-27T03:49:46;16.17;;;13.68;;
33184;SDS011;19550;42.872;25.494;2023-05-27T03:52:13;14.57;;;10.30;;
33184;SDS011;19550;42.872;25.494;2023-05-27T03:54:40;35.63;;;24.42;;
33184;SDS011;19550;42.872;25.494;2023-05-27T03:57:09;19.58;;;13.43;;
33184;SDS011;19550;42.872;25.494;2023-05-27T03:59:36;11.20;;;8.70;;
33184;SDS011;19550;42.872;25.494;2023-05-27T04:02:03;13.90;;;9.80;;
33184;SDS011;19550;42.872;25.494;2023-05-27T04:04:30;23.35;;;13.45;;
33184;SDS011;19550;42.872;25.494;2023-05-27T04:06:57;15.60;;;10.98;;
33184;SDS011;19550;42.872;25.494;2023-05-27T04:09:24;20.55;;;12.40;;
33184;SDS011;19550;42.872;25.494;2023-05-27T04:11:50;10.98;;;8.98;;
33184;SDS011;19550;42.872;25.494;2023-05-27T04:14:19;13.82;;;8.57;;
33184;SDS011;19550;42.872;25.494;2023-05-27T04:16:46;14.45;;;7.95;;
33184;SDS011;19550;42.872;25.494;2023-05-27T04:19:13;12.27;;;8.18;;
33184;SDS011;19550;42.872;25.494;2023-05-27T04:21:40;15.77;;;10.88;;
33184;SDS011;19550;42.872;25.494;2023-05-27T04:24:07;14.00;;;11.43;;
33184;SDS011;19550;42.872;25.494;2023-05-27T04:26:34;17.92;;;11.10;;
33184;SDS011;19550;42.872;25.494;2023-05-27T04:29:00;20.58;;;14.88;;
33184;SDS011;19550;42.872;25.494;2023-05-27T04:31:32;16.05;;;11.68;;
33184;SDS011;19550;42.872;25.494;2023-05-27T04:34:01;11.38;;;9.23;;
33184;SDS011;19550;42.872;25.494;2023-05-27T04:36:29;15.38;;;11.20;;
33184;SDS011;19550;42.872;25.494;2023-05-27T04:38:58;16.52;;;11.20;;
33184;SDS011;19550;42.872;25.494;2023-05-27T04:41:26;13.27;;;9.45;;
33184;SDS011;19550;42.872;25.494;2023-05-27T04:43:53;10.43;;;8.68;;
33184;SDS011;19550;42.872;25.494;2023-05-27T04:46:22;12.82;;;8.73;;
33184;SDS011;19550;42.872;25.494;2023-05-27T04:48:51;13.35;;;9.80;;
33184;SDS011;19550;42.872;25.494;2023-05-27T04:51:18;16.75;;;9.60;;
33184;SDS011;19550;42.872;25.494;2023-05-27T04:53:45;11.70;;;10.50;;
33184;SDS011;19550;42.872;25.494;2023-05-27T04:56:13;13.65;;;10.63;;
33184;SDS011;19550;42.872;25.494;2023-05-27T04:58:42;11.20;;;10.10;;
33184;SDS011;19550;42.872;25.494;2023-05-27T05:01:11;10.93;;;9.70;;
33184;SDS011;19550;42.872;25.494;2023-05-27T05:03:42;12.20;;;9.75;;
33184;SDS011;19550;42.872;25.494;2023-05-27T05:06:20;13.25;;;9.00;;
33184;SDS011;19550;42.872;25.494;2023-05-27T05:08:48;16.50;;;11.32;;
33184;SDS011;19550;42.872;25.494;2023-05-27T05:11:16;10.95;;;8.15;;
33184;SDS011;19550;42.872;25.494;2023-05-27T05:13:43;10.43;;;9.10;;
33184;SDS011;19550;42.872;25.494;2023-05-27T05:16:10;11.20;;;9.18;;
33184;SDS011;19550;42.872;25.494;2023-05-27T05:18:37;13.30;;;9.27;;
33184;SDS011;19550;42.872;25.494;2023-05-27T05:21:03;11.85;;;9.48;;
33184;SDS011;19550;42.872;25.494;2023-05-27T05:23:32;11.32;;;8.95;;
33184;SDS011;19550;42.872;25.494;2023-05-27T05:25:58;10.32;;;9.23;;
33184;SDS011;19550;42.872;25.494;2023-05-27T05:28:32;13.35;;;10.38;;
33184;SDS011;19550;42.872;25.494;2023-05-27T05:31:00;13.02;;;10.32;;
33184;SDS011;19550;42.872;25.494;2023-05-27T05:33:27;11.07;;;9.90;;
33184;SDS011;19550;42.872;25.494;2023-05-27T05:35:54;13.85;;;9.10;;
33184;SDS011;19550;42.872;25.494;2023-05-27T05:38:21;16.70;;;9.75;;
33184;SDS011;19550;42.872;25.494;2023-05-27T05:40:49;12.90;;;8.48;;
33184;SDS011;19550;42.872;25.494;2023-05-27T05:43:17;10.20;;;7.47;;
33184;SDS011;19550;42.872;25.494;2023-05-27T05:45:45;10.15;;;7.97;;
33184;SDS011;19550;42.872;25.494;2023-05-27T05:48:12;12.05;;;8.18;;
33184;SDS011;19550;42.872;25.494;2023-05-27T05:50:39;9.57;;;8.18;;
33184;SDS011;19550;42.872;25.494;2023-05-27T05:53:06;10.98;;;7.82;;
33184;SDS011;19550;42.872;25.494;2023-05-27T05:55:33;11.20;;;9.20;;
33184;SDS011;19550;42.872;25.494;2023-05-27T05:58:01;12.43;;;8.85;;
33184;SDS011;19550;42.872;25.494;2023-05-27T06:00:28;14.23;;;8.85;;
33184;SDS011;19550;42.872;25.494;2023-05-27T06:02:55;15.77;;;10.27;;
33184;SDS011;19550;42.872;25.494;2023-05-27T06:05:21;13.90;;;8.73;;
33184;SDS011;19550;42.872;25.494;2023-05-27T06:07:51;10.85;;;9.00;;
33184;SDS011;19550;42.872;25.494;2023-05-27T06:10:18;13.93;;;8.40;;
33184;SDS011;19550;42.872;25.494;2023-05-27T06:12:45;11.52;;;6.88;;
33184;SDS011;19550;42.872;25.494;2023-05-27T06:15:13;11.32;;;6.65;;
33184;SDS011;19550;42.872;25.494;2023-05-27T06:17:40;7.45;;;6.10;;
33184;SDS011;19550;42.872;25.494;2023-05-27T06:20:07;7.15;;;6.07;;
33184;SDS011;19550;42.872;25.494;2023-05-27T06:22:35;5.78;;;5.05;;
33184;SDS011;19550;42.872;25.494;2023-05-27T06:25:01;8.85;;;6.47;;
33184;SDS011;19550;42.872;25.494;2023-05-27T06:27:28;8.63;;;6.47;;
33184;SDS011;19550;42.872;25.494;2023-05-27T06:29:55;6.80;;;5.80;;
33184;SDS011;19550;42.872;25.494;2023-05-27T06:32:24;6.20;;;5.57;;
33184;SDS011;19550;42.872;25.494;2023-05-27T06:34:51;5.90;;;4.95;;
33184;SDS011;19550;42.872;25.494;2023-05-27T06:37:18;7.03;;;4.85;;
33184;SDS011;19550;42.872;25.494;2023-05-27T06:39:45;7.78;;;5.05;;
33184;SDS011;19550;42.872;25.494;2023-05-27T06:42:12;10.88;;;5.07;;
33184;SDS011;19550;42.872;25.494;2023-05-27T06:44:39;9.52;;;5.60;;
33184;SDS011;19550;42.872;25.494;2023-05-27T06:47:06;5.78;;;4.80;;
33184;SDS011;19550;42.872;25.494;2023-05-27T06:49:34;7.85;;;4.53;;
33184;SDS011;19550;42.872;25.494;2023-05-27T06:52:01;7.15;;;5.30;;
33184;SDS011;19550;42.872;25.494;2023-05-27T06:54:28;7.45;;;4.72;;
33184;SDS011;19550;42.872;25.494;2023-05-27T06:56:55;9.02;;;4.97;;
33184;SDS011;19550;42.872;25.494;2023-05-27T06:59:22;6.68;;;4.88;;
33184;SDS011;19550;42.872;25.494;2023-05-27T07:01:49;8.07;;;5.82;;
33184;SDS011;19550;42.872;25.494;2023-05-27T07:04:16;6.13;;;4.78;;
33184;SDS011;19550;42.872;25.494;2023-05-27T07:06:44;6.25;;;4.50;;
33184;SDS011;19550;42.872;25.494;2023-05-27T07:09:11;5.65;;;4.50;;
33184;SDS011;19550;42.872;25.494;2023-05-27T07:11:39;5.38;;;4.40;;
33184;SDS011;19550;42.872;25.494;2023-05-27T07:14:06;5.93;;;4.60;;
33184;SDS011;19550;42.872;25.494;2023-05-27T07:16:34;5.80;;;4.03;;
33184;SDS011;19550;42.872;25.494;2023-05-27T07:19:01;4.50;;;4.07;;
33184;SDS011;19550;42.872;25.494;2023-05-27T07:21:28;5.30;;;4.22;;
33184;SDS011;19550;42.872;25.494;2023-05-27T07:23:56;5.03;;;4.53;;
33184;SDS011;19550;42.872;25.494;2023-05-27T07:26:23;5.07;;;4.47;;
33184;SDS011;19550;42.872;25.494;2023-05-27T07:28:52;5.70;;;4.00;;
33184;SDS011;19550;42.872;25.494;2023-05-27T07:31:18;6.18;;;4.15;;
33184;SDS011;19550;42.872;25.494;2023-05-27T07:33:45;5.47;;;4.28;;
33184;SDS011;19550;42.872;25.494;2023-05-27T07:36:12;5.93;;;3.97;;
33184;SDS011;19550;42.872;25.494;2023-05-27T07:38:39;6.20;;;3.88;;
33184;SDS011;19550;42.872;25.494;2023-05-27T07:41:07;4.88;;;4.15;;
33184;SDS011;19550;42.872;25.494;2023-05-27T07:43:35;5.88;;;4.00;;
33184;SDS011;19550;42.872;25.494;2023-05-27T07:46:02;5.28;;;4.13;;
33184;SDS011;19550;42.872;25.494;2023-05-27T07:48:29;5.20;;;4.15;;
33184;SDS011;19550;42.872;25.494;2023-05-27T07:50:56;5.82;;;4.30;;
33184;SDS011;19550;42.872;25.494;2023-05-27T07:53:23;4.63;;;4.05;;
33184;SDS011;19550;42.872;25.494;2023-05-27T07:55:50;6.47;;;4.20;;
33184;SDS011;19550;42.872;25.494;2023-05-27T07:58:18;5.70;;;4.50;;
33184;SDS011;19550;42.872;25.494;2023-05-27T08:00:45;4.78;;;3.92;;
33184;SDS011;19550;42.872;25.494;2023-05-27T08:03:12;7.00;;;4.30;;
33184;SDS011;19550;42.872;25.494;2023-05-27T08:05:39;11.57;;;4.78;;
33184;SDS011;19550;42.872;25.494;2023-05-27T08:08:06;4.43;;;3.70;;
33184;SDS011;19550;42.872;25.494;2023-05-27T08:10:32;10.02;;;4.45;;
33184;SDS011;19550;42.872;25.494;2023-05-27T08:12:59;6.60;;;4.40;;
33184;SDS011;19550;42.872;25.494;2023-05-27T08:15:27;4.43;;;4.03;;
33184;SDS011;19550;42.872;25.494;2023-05-27T08:17:55;5.20;;;3.90;;
33184;SDS011;19550;42.872;25.494;2023-05-27T08:20:22;5.97;;;4.47;;
33184;SDS011;19550;42.872;25.494;2023-05-27T08:22:49;5.10;;;3.72;;
33184;SDS011;19550;42.872;25.494;2023-05-27T08:25:16;4.00;;;3.60;;
33184;SDS011;19550;42.872;25.494;2023-05-27T08:27:43;4.88;;;4.38;;
33184;SDS011;19550;42.872;25.494;2023-05-27T08:30:10;5.13;;;4.10;;
33184;SDS011;19550;42.872;25.494;2023-05-27T08:32:39;6.95;;;4.68;;
33184;SDS011;19550;42.872;25.494;2023-05-27T08:35:07;5.80;;;4.22;;
33184;SDS011;19550;42.872;25.494;2023-05-27T08:37:34;6.18;;;4.80;;
33184;SDS011;19550;42.872;25.494;2023-05-27T08:40:02;8.70;;;6.20;;
33184;SDS011;19550;42.872;25.494;2023-05-27T08:42:31;6.20;;;5.57;;
33184;SDS011;19550;42.872;25.494;2023-05-27T08:44:59;7.32;;;4.63;;
33184;SDS011;19550;42.872;25.494;2023-05-27T08:47:26;6.50;;;4.20;;
33184;SDS011;19550;42.872;25.494;2023-05-27T08:49:56;5.65;;;4.53;;
33184;SDS011;19550;42.872;25.494;2023-05-27T08:52:24;7.35;;;4.43;;
33184;SDS011;19550;42.872;25.494;2023-05-27T08:54:54;5.78;;;4.43;;
33184;SDS011;19550;42.872;25.494;2023-05-27T08:57:23;6.22;;;4.55;;
33184;SDS011;19550;42.872;25.494;2023-05-27T08:59:54;5.35;;;4.72;;
33184;SDS011;19550;42.872;25.494;2023-05-27T09:02:21;5.43;;;4.30;;
33184;SDS011;19550;42.872;25.494;2023-05-27T09:04:49;7.80;;;4.60;;
33184;SDS011;19550;42.872;25.494;2023-05-27T09:07:17;6.75;;;4.68;;
33184;SDS011;19550;42.872;25.494;2023-05-27T09:09:54;5.15;;;4.35;;
33184;SDS011;19550;42.872;25.494;2023-05-27T09:12:22;5.20;;;4.35;;
33184;SDS011;19550;42.872;25.494;2023-05-27T09:14:50;7.70;;;4.28;;
33184;SDS011;19550;42.872;25.494;2023-05-27T09:17:17;5.10;;;4.47;;
33184;SDS011;19550;42.872;25.494;2023-05-27T09:19:44;5.95;;;4.38;;
33184;SDS011;19550;42.872;25.494;2023-05-27T09:22:19;4.95;;;4.07;;
33184;SDS011;19550;42.872;25.494;2023-05-27T09:24:47;4.80;;;4.25;;
33184;SDS011;19550;42.872;25.494;2023-05-27T09:27:14;6.20;;;4.47;;
33184;SDS011;19550;42.872;25.494;2023-05-27T09:29:41;4.55;;;4.05;;
33184;SDS011;19550;42.872;25.494;2023-05-27T09:32:08;5.80;;;4.70;;
33184;SDS011;19550;42.872;25.494;2023-05-27T09:34:37;6.25;;;4.25;;
33184;SDS011;19550;42.872;25.494;2023-05-27T09:37:04;5.20;;;4.60;;
33184;SDS011;19550;42.872;25.494;2023-05-27T09:39:33;4.90;;;4.43;;
33184;SDS011;19550;42.872;25.494;2023-05-27T09:42:01;6.95;;;4.28;;
33184;SDS011;19550;42.872;25.494;2023-05-27T09:44:29;7.03;;;4.80;;
33184;SDS011;19550;42.872;25.494;2023-05-27T09:46:56;4.88;;;4.40;;
33184;SDS011;19550;42.872;25.494;2023-05-27T09:49:25;9.50;;;5.68;;
33184;SDS011;19550;42.872;25.494;2023-05-27T09:51:53;5.45;;;4.80;;
33184;SDS011;19550;42.872;25.494;2023-05-27T09:54:22;8.07;;;4.60;;
33184;SDS011;19550;42.872;25.494;2023-05-27T09:56:51;8.88;;;5.40;;
33184;SDS011;19550;42.872;25.494;2023-05-27T09:59:19;8.77;;;5.22;;
33184;SDS011;19550;42.872;25.494;2023-05-27T10:01:46;11.07;;;5.55;;
33184;SDS011;19550;42.872;25.494;2023-05-27T10:04:14;6.13;;;4.50;;
33184;SDS011;19550;42.872;25.494;2023-05-27T10:06:41;6.00;;;5.50;;
33184;SDS011;19550;42.872;25.494;2023-05-27T10:09:10;6.90;;;6.20;;
33184;SDS011;19550;42.872;25.494;2023-05-27T10:11:38;6.63;;;5.28;;
33184;SDS011;19550;42.872;25.494;2023-05-27T10:14:08;8.20;;;4.97;;
33184;SDS011;19550;42.872;25.494;2023-05-27T10:16:35;10.10;;;5.57;;
33184;SDS011;19550;42.872;25.494;2023-05-27T10:19:08;6.90;;;5.72;;
33184;SDS011;19550;42.872;25.494;2023-05-27T10:21:41;7.63;;;5.07;;
33184;SDS011;19550;42.872;25.494;2023-05-27T10:24:09;9.43;;;5.93;;
33184;SDS011;19550;42.872;25.494;2023-05-27T10:26:38;12.30;;;6.18;;
33184;SDS011;19550;42.872;25.494;2023-05-27T10:29:06;9.07;;;5.88;;
33184;SDS011;19550;42.872;25.494;2023-05-27T10:34:03;7.90;;;5.82;;
33184;SDS011;19550;42.872;25.494;2023-05-27T10:36:32;11.20;;;6.28;;
33184;SDS011;19550;42.872;25.494;2023-05-27T10:39:02;10.57;;;6.68;;
33184;SDS011;19550;42.872;25.494;2023-05-27T10:41:38;10.52;;;6.75;;
33184;SDS011;19550;42.872;25.494;2023-05-27T10:44:05;8.48;;;6.55;;
33184;SDS011;19550;42.872;25.494;2023-05-27T10:46:38;9.60;;;6.60;;
33184;SDS011;19550;42.872;25.494;2023-05-27T10:51:52;8.07;;;6.78;;
33184;SDS011;19550;42.872;25.494;2023-05-27T10:54:23;10.13;;;6.35;;
33184;SDS011;19550;42.872;25.494;2023-05-27T10:56:51;8.93;;;6.45;;
33184;SDS011;19550;42.872;25.494;2023-05-27T10:59:19;6.78;;;6.15;;
33184;SDS011;19550;42.872;25.494;2023-05-27T11:01:50;8.18;;;6.90;;
33184;SDS011;19550;42.872;25.494;2023-05-27T11:04:18;12.43;;;8.20;;
33184;SDS011;19550;42.872;25.494;2023-05-27T11:06:55;11.15;;;7.40;;
33184;SDS011;19550;42.872;25.494;2023-05-27T11:09:23;8.30;;;6.18;;
33184;SDS011;19550;42.872;25.494;2023-05-27T11:11:50;5.80;;;5.30;;
33184;SDS011;19550;42.872;25.494;2023-05-27T11:14:17;6.10;;;5.25;;
33184;SDS011;19550;42.872;25.494;2023-05-27T11:16:45;7.07;;;6.00;;
33184;SDS011;19550;42.872;25.494;2023-05-27T11:19:15;9.93;;;6.63;;
33184;SDS011;19550;42.872;25.494;2023-05-27T11:21:45;10.25;;;6.90;;
33184;SDS011;19550;42.872;25.494;2023-05-27T11:24:15;6.90;;;5.90;;
33184;SDS011;19550;42.872;25.494;2023-05-27T11:26:42;10.32;;;6.10;;
33184;SDS011;19550;42.872;25.494;2023-05-27T11:29:11;7.95;;;6.60;;
33184;SDS011;19550;42.872;25.494;2023-05-27T11:31:38;9.25;;;5.43;;
33184;SDS011;19550;42.872;25.494;2023-05-27T11:34:11;7.30;;;5.60;;
33184;SDS011;19550;42.872;25.494;2023-05-27T11:36:40;7.18;;;5.80;;
33184;SDS011;19550;42.872;25.494;2023-05-27T11:39:10;6.35;;;5.32;;
33184;SDS011;19550;42.872;25.494;2023-05-27T11:41:47;7.32;;;6.30;;
33184;SDS011;19550;42.872;25.494;2023-05-27T11:44:14;7.15;;;6.22;;
33184;SDS011;19550;42.872;25.494;2023-05-27T11:46:42;11.23;;;6.78;;
33184;SDS011;19550;42.872;25.494;2023-05-27T11:49:11;7.38;;;6.55;;
33184;SDS011;19550;42.872;25.494;2023-05-27T11:51:40;9.20;;;5.80;;
33184;SDS011;19550;42.872;25.494;2023-05-27T11:54:16;7.90;;;7.10;;
33184;SDS011;19550;42.872;25.494;2023-05-27T11:56:45;8.13;;;5.93;;
33184;SDS011;19550;42.872;25.494;2023-05-27T11:59:12;9.45;;;7.50;;
33184;SDS011;19550;42.872;25.494;2023-05-27T12:01:39;10.32;;;6.28;;
33184;SDS011;19550;42.872;25.494;2023-05-27T12:04:07;10.05;;;6.30;;
33184;SDS011;19550;42.872;25.494;2023-05-27T12:06:34;7.22;;;6.53;;
33184;SDS011;19550;42.872;25.494;2023-05-27T12:09:04;10.32;;;6.60;;
33184;SDS011;19550;42.872;25.494;2023-05-27T12:11:31;8.23;;;6.68;;
33184;SDS011;19550;42.872;25.494;2023-05-27T12:13:59;11.73;;;7.70;;
33184;SDS011;19550;42.872;25.494;2023-05-27T12:16:26;8.02;;;6.45;;
33184;SDS011;19550;42.872;25.494;2023-05-27T12:18:53;11.10;;;7.30;;
33184;SDS011;19550;42.872;25.494;2023-05-27T12:21:20;9.25;;;7.30;;
33184;SDS011;19550;42.872;25.494;2023-05-27T12:23:47;9.15;;;7.22;;
33184;SDS011;19550;42.872;25.494;2023-05-27T12:26:16;12.75;;;7.88;;
33184;SDS011;19550;42.872;25.494;2023-05-27T12:28:43;9.63;;;7.60;;
33184;SDS011;19550;42.872;25.494;2023-05-27T12:31:10;11.32;;;7.45;;
33184;SDS011;19550;42.872;25.494;2023-05-27T12:33:37;8.05;;;7.05;;
33184;SDS011;19550;42.872;25.494;2023-05-27T12:36:05;12.98;;;8.00;;
33184;SDS011;19550;42.872;25.494;2023-05-27T12:38:32;9.63;;;7.05;;
33184;SDS011;19550;42.872;25.494;2023-05-27T12:40:59;11.27;;;8.23;;
33184;SDS011;19550;42.872;25.494;2023-05-27T12:43:27;12.27;;;7.10;;
33184;SDS011;19550;42.872;25.494;2023-05-27T12:45:56;13.52;;;7.25;;
33184;SDS011;19550;42.872;25.494;2023-05-27T12:48:24;12.23;;;7.40;;
33184;SDS011;19550;42.872;25.494;2023-05-27T12:50:51;12.80;;;9.18;;
33184;SDS011;19550;42.872;25.494;2023-05-27T12:53:18;13.57;;;8.00;;
33184;SDS011;19550;42.872;25.494;2023-05-27T12:55:45;10.88;;;8.00;;
33184;SDS011;19550;42.872;25.494;2023-05-27T12:58:12;11.90;;;7.60;;
33184;SDS011;19550;42.872;25.494;2023-05-27T13:00:40;12.85;;;7.65;;
33184;SDS011;19550;42.872;25.494;2023-05-27T13:03:09;14.10;;;8.65;;
33184;SDS011;19550;42.872;25.494;2023-05-27T13:05:36;9.02;;;7.43;;
33184;SDS011;19550;42.872;25.494;2023-05-27T13:08:03;10.38;;;6.65;;
33184;SDS011;19550;42.872;25.494;2023-05-27T13:10:30;7.55;;;6.05;;
33184;SDS011;19550;42.872;25.494;2023-05-27T13:12:58;13.50;;;9.07;;
33184;SDS011;19550;42.872;25.494;2023-05-27T13:15:26;8.85;;;6.80;;
33184;SDS011;19550;42.872;25.494;2023-05-27T13:17:54;7.18;;;6.35;;
33184;SDS011;19550;42.872;25.494;2023-05-27T13:20:24;8.82;;;6.85;;
33184;SDS011;19550;42.872;25.494;2023-05-27T13:22:53;9.98;;;6.45;;
33184;SDS011;19550;42.872;25.494;2023-05-27T13:25:24;14.20;;;8.27;;
33184;SDS011;19550;42.872;25.494;2023-05-27T13:27:52;10.43;;;6.90;;
33184;SDS011;19550;42.872;25.494;2023-05-27T13:30:20;8.88;;;6.78;;
33184;SDS011;19550;42.872;25.494;2023-05-27T13:32:47;10.43;;;6.93;;
33184;SDS011;19550;42.872;25.494;2023-05-27T13:35:15;9.73;;;6.93;;
33184;SDS011;19550;42.872;25.494;2023-05-27T13:37:42;11.82;;;8.02;;
33184;SDS011;19550;42.872;25.494;2023-05-27T13:40:10;11.07;;;6.18;;
33184;SDS011;19550;42.872;25.494;2023-05-27T13:42:37;9.82;;;6.53;;
33184;SDS011;19550;42.872;25.494;2023-05-27T13:45:04;8.90;;;6.90;;
33184;SDS011;19550;42.872;25.494;2023-05-27T13:47:32;12.05;;;7.55;;
33184;SDS011;19550;42.872;25.494;2023-05-27T13:49:59;10.55;;;7.05;;
33184;SDS011;19550;42.872;25.494;2023-05-27T13:52:27;11.18;;;7.82;;
33184;SDS011;19550;42.872;25.494;2023-05-27T13:54:54;14.10;;;6.95;;
33184;SDS011;19550;42.872;25.494;2023-05-27T13:57:21;12.48;;;8.30;;
33184;SDS011;19550;42.872;25.494;2023-05-27T13:59:48;11.20;;;9.35;;
33184;SDS011;19550;42.872;25.494;2023-05-27T14:02:15;16.17;;;8.10;;
33184;SDS011;19550;42.872;25.494;2023-05-27T14:04:42;9.73;;;6.18;;
33184;SDS011;19550;42.872;25.494;2023-05-27T14:07:09;9.20;;;7.70;;
33184;SDS011;19550;42.872;25.494;2023-05-27T14:09:37;20.80;;;15.95;;
33184;SDS011;19550;42.872;25.494;2023-05-27T14:12:05;11.45;;;6.85;;
33184;SDS011;19550;42.872;25.494;2023-05-27T14:14:32;14.15;;;7.97;;
33184;SDS011;19550;42.872;25.494;2023-05-27T14:16:58;7.32;;;6.20;;
33184;SDS011;19550;42.872;25.494;2023-05-27T14:19:25;9.15;;;8.13;;
33184;SDS011;19550;42.872;25.494;2023-05-27T14:21:52;9.48;;;7.57;;
33184;SDS011;19550;42.872;25.494;2023-05-27T14:24:19;8.38;;;6.38;;
33184;SDS011;19550;42.872;25.494;2023-05-27T14:26:47;8.82;;;7.30;;
33184;SDS011;19550;42.872;25.494;2023-05-27T14:29:14;11.68;;;7.05;;
33184;SDS011;19550;42.872;25.494;2023-05-27T14:31:41;11.38;;;6.68;;
33184;SDS011;19550;42.872;25.494;2023-05-27T14:34:08;9.13;;;7.05;;
33184;SDS011;19550;42.872;25.494;2023-05-27T14:36:35;12.27;;;7.50;;